This is the latest recevied weather packets stored in our database for station/object OE2SWM. If no packets are shown the sender has not sent any weather packets the latest 10 day(s).
| Time | Temp. | Humidity | Pressure | Rain* | Wind** | Luminosity | Snow |
|---|---|---|---|---|---|---|---|
| 1777972800 | 18.89° C | 46% | 965 hPa | 0 mm | - | - | - |
| 1777972200 | 18.89° C | 47% | 965 hPa | 0 mm | - | - | - |
| 1777971600 | 18.89° C | 49% | 965 hPa | 0 mm | - | - | - |
| 1777971000 | 18.89° C | 49% | 965 hPa | 0 mm | - | - | - |
| 1777970400 | 17.78° C | 49% | 965 hPa | 0 mm | - | - | - |
| 1777969800 | 17.78° C | 48% | 965 hPa | 0 mm | - | - | - |
| 1777969200 | 17.78° C | 48% | 965 hPa | 0 mm | - | - | - |
| 1777968600 | 17.78° C | 50% | 965 hPa | 0 mm | - | - | - |
| 1777968000 | 17.78° C | 51% | 966 hPa | 0 mm | - | - | - |
| 1777967400 | 16.67° C | 50% | 965 hPa | 0 mm | - | - | - |
| 1777966800 | 16.67° C | 52% | 966 hPa | 0 mm | - | - | - |
| 1777966200 | 16.67° C | 53% | 966 hPa | 0 mm | - | - | - |
| 1777965600 | 15.56° C | 54% | 966 hPa | 0 mm | - | - | - |
| 1777965000 | 15.56° C | 53% | 966 hPa | 0 mm | - | - | - |
| 1777964400 | 15.56° C | 55% | 966 hPa | 0 mm | - | - | - |
| 1777963800 | 15° C | 60% | 966 hPa | 0 mm | - | - | - |
| 1777963200 | 13.89° C | 61% | 966 hPa | 0 mm | - | - | - |
| 1777962600 | 12.78° C | 62% | 966 hPa | 0 mm | - | - | - |
| 1777962000 | 13.89° C | 60% | 966 hPa | 0 mm | - | - | - |
| 1777961400 | 12.78° C | 62% | 966 hPa | 0 mm | - | - | - |
| 1777960800 | 13.89° C | 65% | 966 hPa | 0 mm | - | - | - |
| 1777960200 | 11.67° C | 69% | 966 hPa | 0 mm | - | - | - |
| 1777959600 | 12.78° C | 64% | 966 hPa | 0 mm | - | - | - |
| 1777959000 | 15.56° C | 56% | 966 hPa | 0 mm | - | - | - |
| 1777958400 | 21.67° C | 44% | 966 hPa | 0 mm | - | - | - |
* Rain latest hour (hover to see other rain measurements)
** Current wind speed in m/s (hover to see current wind gust speed)